Decoded Metar for LIRZ (PERUGIA in ITALY) (IATA:PEG) | Meteo·Mobile Aviation Weather
aviador You're here:

LIRZ Decoded Metar

PERUGIA in ITALY
Report Time2019-09-21 01:50:00
UTC Time2019-09-21 02:27:43
Flight Rules vfr VFR
Wind350° at 07 kt
W.Decomp.*RWY 01: 6.5 kt HW 2.6 kt LCW
Visibility9999 m
Phenomena:N/A
Clouds:N/A
Expected CloudBase > 2,000 ft AGL from Temp-Dew spread
CeilingNone
Temp10°C (ISA -4)
Dew Point05°C (71% RH)
AAT6.4°C
QNH1023 hPa
Density Alt20 ft
Elevation673 ft
Report Wrong Elevation
Raw Report
METAR LIRZ 210150Z AUTO 35007KT 9999 NCD 10/05 Q1023=####018000240####
SAIY37 LIIB 210200

Extra information for LIRZ:More info

Metar Taf Metar & Taf Last 4 Metars F.Rules Stats Wind Profile Meteogram Temp Stats Airport Information Weather charts Add Link Nearby VenuesMetar ALERT Operation Metar Decoded Social comments